createdAt,value
2018-05-09T00:00:23.120Z,3.10
2018-05-09T00:02:50.554Z,3.53
2018-05-09T00:05:18.017Z,3.23
2018-05-09T00:07:45.452Z,3.50
2018-05-09T00:10:13.667Z,3.37
2018-05-09T00:12:41.124Z,2.70
2018-05-09T00:15:08.579Z,3.30
2018-05-09T00:17:36.019Z,3.13
2018-05-09T00:20:03.480Z,2.60
2018-05-09T00:22:30.927Z,2.33
2018-05-09T00:24:58.379Z,3.30
2018-05-09T00:27:25.823Z,2.60
2018-05-09T00:29:53.282Z,2.97
2018-05-09T00:32:20.730Z,2.70
2018-05-09T00:34:48.171Z,3.30
2018-05-09T00:37:15.615Z,3.37
2018-05-09T00:39:43.835Z,2.40
2018-05-09T00:42:11.275Z,2.53
2018-05-09T00:44:38.719Z,2.93
2018-05-09T00:47:06.188Z,3.40
2018-05-09T00:49:34.375Z,3.63
2018-05-09T00:52:01.832Z,4.00
2018-05-09T00:54:32.843Z,3.20
2018-05-09T00:57:01.048Z,2.67
2018-05-09T00:59:29.267Z,2.57
2018-05-09T01:01:56.712Z,3.37
2018-05-09T01:04:24.163Z,2.50
2018-05-09T01:06:51.612Z,2.83
2018-05-09T01:09:19.062Z,2.70
2018-05-09T01:11:46.503Z,2.90
2018-05-09T01:14:13.957Z,3.20
2018-05-09T01:16:41.404Z,2.40
2018-05-09T01:19:08.855Z,2.77
2018-05-09T01:21:36.295Z,3.00
2018-05-09T01:24:04.506Z,3.13
2018-05-09T01:26:31.950Z,2.80
2018-05-09T01:28:59.399Z,2.60
2018-05-09T01:31:26.839Z,3.70
2018-05-09T01:33:55.059Z,3.07
2018-05-09T01:36:22.503Z,4.00
2018-05-09T01:38:49.946Z,2.63
2018-05-09T01:41:17.391Z,3.30
2018-05-09T01:43:44.836Z,2.77
2018-05-09T01:46:13.051Z,3.00
2018-05-09T01:48:40.509Z,3.87
2018-05-09T01:51:07.961Z,2.77
2018-05-09T01:53:35.402Z,3.40
2018-05-09T01:56:02.855Z,2.90
2018-05-09T01:58:31.942Z,3.00
2018-05-09T02:01:01.039Z,3.30
2018-05-09T02:03:30.126Z,3.57
2018-05-09T02:05:59.267Z,2.93
2018-05-09T02:08:28.318Z,3.10
2018-05-09T02:10:57.418Z,3.83
2018-05-09T02:13:26.510Z,3.83
2018-05-09T02:15:55.606Z,3.43
2018-05-09T02:18:24.702Z,3.27
2018-05-09T02:20:53.803Z,3.17
2018-05-09T02:23:22.894Z,3.67
2018-05-09T02:25:51.995Z,3.03
2018-05-09T02:28:21.086Z,4.00
2018-05-09T02:30:50.187Z,3.57
2018-05-09T02:33:19.273Z,3.30
2018-05-09T02:35:48.366Z,3.90
2018-05-09T02:38:17.471Z,4.00
2018-05-09T02:40:46.558Z,3.50
2018-05-09T02:43:15.654Z,3.60
2018-05-09T02:45:44.759Z,4.27
2018-05-09T02:48:13.847Z,3.73
2018-05-09T02:50:42.947Z,3.97
2018-05-09T02:53:12.033Z,4.83
2018-05-09T02:55:41.135Z,3.83
2018-05-09T02:58:10.226Z,4.27
2018-05-09T03:00:39.322Z,4.83
2018-05-09T03:03:08.407Z,4.77
2018-05-09T03:05:37.510Z,4.80
2018-05-09T03:08:06.598Z,3.97
2018-05-09T03:10:35.690Z,4.23
2018-05-09T03:13:04.784Z,4.60
2018-05-09T03:15:33.878Z,4.37
2018-05-09T03:18:02.974Z,4.70
2018-05-09T03:20:32.120Z,4.00
2018-05-09T03:23:01.159Z,4.37
2018-05-09T03:25:28.610Z,5.13
2018-05-09T03:27:56.051Z,4.70
2018-05-09T03:30:23.500Z,4.40
2018-05-09T03:32:50.947Z,4.73
2018-05-09T03:35:18.391Z,3.83
2018-05-09T03:37:45.835Z,4.87
2018-05-09T03:40:13.287Z,6.07
2018-05-09T03:42:40.731Z,5.47
2018-05-09T03:45:08.951Z,4.87
2018-05-09T03:47:36.395Z,5.30
2018-05-09T03:50:03.853Z,5.77
2018-05-09T03:52:31.295Z,6.23
2018-05-09T03:54:58.741Z,6.33
2018-05-09T03:57:26.184Z,6.03
2018-05-09T03:59:54.399Z,6.03
2018-05-09T04:02:37.747Z,6.10
2018-05-09T04:05:17.114Z,6.20
2018-05-09T04:07:56.458Z,5.57
2018-05-09T04:10:24.674Z,5.10
2018-05-09T04:12:52.938Z,5.60
2018-05-09T04:15:20.383Z,5.00
2018-05-09T04:17:47.827Z,5.17
2018-05-09T04:20:16.035Z,5.87
2018-05-09T04:22:43.474Z,4.60
2018-05-09T04:25:10.907Z,5.17
2018-05-09T04:27:39.124Z,5.70
2018-05-09T04:30:06.563Z,5.80
2018-05-09T04:32:34.009Z,5.00
2018-05-09T04:35:02.219Z,5.23
2018-05-09T04:37:29.671Z,5.50
2018-05-09T04:39:58.761Z,5.23
2018-05-09T04:42:27.859Z,5.63
2018-05-09T04:44:56.956Z,5.50
2018-05-09T04:47:26.110Z,6.20
2018-05-09T04:49:53.476Z,7.30
2018-05-09T04:52:21.696Z,7.33
2018-05-09T04:54:49.134Z,6.10
2018-05-09T04:57:16.593Z,6.90
2018-05-09T04:59:44.034Z,7.13
2018-05-09T05:02:11.481Z,6.90
2018-05-09T05:04:39.678Z,6.80
2018-05-09T05:07:07.196Z,6.63
2018-05-09T05:09:35.357Z,7.10
2018-05-09T05:12:02.801Z,6.57
2018-05-09T05:14:30.243Z,7.80
2018-05-09T05:16:57.703Z,8.80
2018-05-09T05:19:25.204Z,7.77
2018-05-09T05:21:52.595Z,8.60
2018-05-09T05:24:20.039Z,9.90
2018-05-09T05:26:47.495Z,7.40
2018-05-09T05:29:14.951Z,8.33
2018-05-09T05:31:42.416Z,7.90
2018-05-09T05:34:09.858Z,7.67
2018-05-09T05:36:37.311Z,7.90
2018-05-09T05:39:05.562Z,8.40
2018-05-09T05:41:33.007Z,9.07
2018-05-09T05:44:00.449Z,9.07
2018-05-09T05:46:27.899Z,9.97
2018-05-09T05:48:55.351Z,9.37
2018-05-09T05:51:22.800Z,9.17
2018-05-09T05:53:50.251Z,10.20
2018-05-09T05:56:17.711Z,9.30
2018-05-09T05:58:45.155Z,9.30
2018-05-09T06:01:12.623Z,8.07
2018-05-09T06:03:40.080Z,8.10
2018-05-09T06:06:07.554Z,7.63
2018-05-09T06:08:34.999Z,7.60
2018-05-09T06:11:02.464Z,8.13
2018-05-09T06:13:29.911Z,8.20
2018-05-09T06:15:57.376Z,6.83
2018-05-09T06:18:24.823Z,8.27
2018-05-09T06:20:52.296Z,6.27
2018-05-09T06:23:19.743Z,8.23
2018-05-09T06:25:47.189Z,8.70
2018-05-09T06:28:14.644Z,7.30
2018-05-09T06:30:42.108Z,7.53
2018-05-09T06:33:09.575Z,8.00
2018-05-09T06:35:37.025Z,7.90
2018-05-09T06:38:05.244Z,9.80
2018-05-09T06:40:32.687Z,6.70
2018-05-09T06:43:00.147Z,8.17
2018-05-09T06:45:27.582Z,8.33
2018-05-09T06:47:55.045Z,7.60
2018-05-09T06:50:22.494Z,7.27
2018-05-09T06:52:49.948Z,7.87
2018-05-09T06:55:17.444Z,7.60
2018-05-09T06:57:44.895Z,7.43
2018-05-09T07:00:12.347Z,7.60
2018-05-09T07:02:39.815Z,7.80
2018-05-09T07:05:07.262Z,7.57
2018-05-09T07:07:34.706Z,6.80
2018-05-09T07:10:02.155Z,7.77
2018-05-09T07:12:29.630Z,7.67
2018-05-09T07:14:57.068Z,7.53
2018-05-09T07:17:24.547Z,7.20
2018-05-09T07:19:51.987Z,7.50
2018-05-09T07:22:20.485Z,5.70
2018-05-09T07:24:47.984Z,6.77
2018-05-09T07:27:17.483Z,6.67
2018-05-09T07:29:45.999Z,5.20
2018-05-09T07:32:13.738Z,6.17
2018-05-09T07:34:42.010Z,6.53
2018-05-09T07:37:09.541Z,7.23
2018-05-09T07:39:38.389Z,5.90
2018-05-09T07:42:05.981Z,5.20
2018-05-09T07:44:34.096Z,5.70
2018-05-09T07:47:01.657Z,6.13
2018-05-09T07:49:29.146Z,5.80
2018-05-09T07:51:57.292Z,4.90
2018-05-09T07:54:25.962Z,5.40
2018-05-09T07:56:53.452Z,5.30
2018-05-09T07:59:21.022Z,6.00
2018-05-09T08:01:48.543Z,5.40
2018-05-09T08:04:16.078Z,5.63
2018-05-09T08:06:43.995Z,5.10
2018-05-09T08:09:11.733Z,5.53
2018-05-09T08:11:39.263Z,5.43
2018-05-09T08:14:06.776Z,5.70
2018-05-09T08:16:34.622Z,4.70
2018-05-09T08:19:02.127Z,4.70
2018-05-09T08:21:29.611Z,4.37
2018-05-09T08:23:57.878Z,4.90
2018-05-09T08:26:25.360Z,4.60
2018-05-09T08:28:53.612Z,5.47
2018-05-09T08:31:29.228Z,4.40
2018-05-09T08:33:56.759Z,4.10
2018-05-09T08:36:24.289Z,3.60
2018-05-09T08:38:51.842Z,4.37
2018-05-09T08:41:20.207Z,4.00
2018-05-09T08:43:47.860Z,4.70
2018-05-09T08:46:15.317Z,3.90
2018-05-09T08:48:43.591Z,4.50
2018-05-09T08:51:11.096Z,4.40
2018-05-09T08:53:38.629Z,4.40
2018-05-09T08:56:06.208Z,4.13
2018-05-09T08:58:33.701Z,4.40
2018-05-09T09:01:01.293Z,3.33
2018-05-09T09:03:29.595Z,3.20
2018-05-09T09:05:58.006Z,3.23
2018-05-09T09:08:26.365Z,3.40
2018-05-09T09:10:53.915Z,3.40
2018-05-09T09:13:21.436Z,3.07
2018-05-09T09:15:49.053Z,2.37
2018-05-09T09:18:16.580Z,3.43
2018-05-09T09:20:44.855Z,2.90
2018-05-09T09:23:12.315Z,4.03
2018-05-09T09:25:39.819Z,4.07
2018-05-09T09:28:07.370Z,3.33
2018-05-09T09:30:34.929Z,3.70
2018-05-09T09:33:02.607Z,3.83
2018-05-09T09:35:30.327Z,3.40
2018-05-09T09:37:57.936Z,3.30
2018-05-09T09:40:25.676Z,3.30
2018-05-09T09:42:53.368Z,3.10
2018-05-09T09:45:21.095Z,2.90
2018-05-09T09:47:48.640Z,3.90
2018-05-09T09:50:16.216Z,3.43
2018-05-09T09:52:43.680Z,3.03
2018-05-09T09:55:11.120Z,2.93
2018-05-09T09:57:38.588Z,3.63
2018-05-09T10:00:06.041Z,3.10
2018-05-09T10:02:44.328Z,3.50
2018-05-09T10:05:11.800Z,3.30
2018-05-09T10:07:40.138Z,3.67
2018-05-09T10:10:07.617Z,3.53
2018-05-09T10:12:35.915Z,2.63
2018-05-09T10:15:03.379Z,2.83
2018-05-09T10:17:30.853Z,2.90
2018-05-09T10:19:58.319Z,2.30
2018-05-09T10:22:27.443Z,2.90
2018-05-09T10:24:56.910Z,2.60
2018-05-09T10:27:26.001Z,2.57
2018-05-09T10:29:55.105Z,2.43
2018-05-09T10:32:27.279Z,2.60
2018-05-09T10:34:56.396Z,2.53
2018-05-09T10:37:25.491Z,4.17
2018-05-09T10:39:54.596Z,2.80
2018-05-09T10:42:23.705Z,2.63
2018-05-09T10:44:52.824Z,3.10
2018-05-09T10:47:21.934Z,3.13
2018-05-09T10:49:51.056Z,3.40
2018-05-09T10:52:20.157Z,3.53
2018-05-09T10:54:49.259Z,2.93
2018-05-09T10:57:18.384Z,2.80
2018-05-09T10:59:47.487Z,3.10
2018-05-09T11:02:16.580Z,2.53
2018-05-09T11:04:45.700Z,2.40
2018-05-09T11:07:14.795Z,2.90
2018-05-09T11:09:43.920Z,1.97
2018-05-09T11:12:13.033Z,2.30
2018-05-09T11:14:42.157Z,2.43
2018-05-09T11:17:11.248Z,2.50
2018-05-09T11:19:40.361Z,2.43
2018-05-09T11:22:09.468Z,2.90
2018-05-09T11:24:38.593Z,2.47
2018-05-09T11:27:07.672Z,2.70
2018-05-09T11:29:36.796Z,2.50
2018-05-09T11:32:05.894Z,2.10
2018-05-09T11:34:35.012Z,2.20
2018-05-09T11:37:04.112Z,2.17
2018-05-09T11:39:33.225Z,2.03
2018-05-09T11:42:02.322Z,2.10
2018-05-09T11:44:31.456Z,2.17
2018-05-09T11:47:00.549Z,2.57
2018-05-09T11:49:29.726Z,2.23
2018-05-09T11:51:58.820Z,2.33
2018-05-09T11:54:27.935Z,2.83
2018-05-09T11:56:57.048Z,2.87
2018-05-09T11:59:26.165Z,2.47
2018-05-09T12:01:55.275Z,2.43
2018-05-09T12:04:24.373Z,2.40
2018-05-09T12:06:53.481Z,2.23
2018-05-09T12:09:22.593Z,2.00
2018-05-09T12:11:51.692Z,1.70
2018-05-09T12:14:20.805Z,1.50
2018-05-09T12:16:49.892Z,1.40
2018-05-09T12:19:19.003Z,1.73
2018-05-09T12:21:48.132Z,1.97
2018-05-09T12:24:17.243Z,2.20
2018-05-09T12:26:46.360Z,2.47
2018-05-09T12:29:16.274Z,2.13
2018-05-09T12:31:45.434Z,1.90
2018-05-09T12:34:14.541Z,2.50
2018-05-09T12:36:43.654Z,1.93
2018-05-09T12:39:12.757Z,2.00
2018-05-09T12:41:41.877Z,1.90
2018-05-09T12:44:11.034Z,2.07
2018-05-09T12:46:40.128Z,1.80
2018-05-09T12:49:09.221Z,2.30
2018-05-09T12:51:38.323Z,2.13
2018-05-09T12:54:07.431Z,2.37
2018-05-09T12:56:36.537Z,2.23
2018-05-09T12:59:05.641Z,2.40
2018-05-09T13:01:34.746Z,1.97
2018-05-09T13:04:03.848Z,2.27
2018-05-09T13:06:32.948Z,2.30
2018-05-09T13:09:02.068Z,1.73
2018-05-09T13:11:31.155Z,2.50
2018-05-09T13:14:00.264Z,2.27
2018-05-09T13:16:29.347Z,2.20
2018-05-09T13:18:58.446Z,2.17
2018-05-09T13:21:27.543Z,2.07
2018-05-09T13:23:56.650Z,2.20
2018-05-09T13:26:25.739Z,2.40
2018-05-09T13:28:54.843Z,2.60
2018-05-09T13:31:23.950Z,2.27
2018-05-09T13:33:53.060Z,1.83
2018-05-09T13:36:22.147Z,2.13
2018-05-09T13:38:51.251Z,2.23
2018-05-09T13:41:26.655Z,2.30
2018-05-09T13:43:55.747Z,2.30
2018-05-09T13:46:24.924Z,2.73
2018-05-09T13:48:53.652Z,2.10
2018-05-09T13:51:22.447Z,2.60
2018-05-09T13:53:51.365Z,2.00
2018-05-09T13:56:20.376Z,1.80
2018-05-09T13:58:49.489Z,2.13
2018-05-09T14:01:18.589Z,1.97
2018-05-09T14:03:47.885Z,2.13
2018-05-09T14:06:22.952Z,2.27
2018-05-09T14:08:51.821Z,1.77
2018-05-09T14:11:22.683Z,1.93
2018-05-09T14:13:51.624Z,1.77
2018-05-09T14:16:20.468Z,1.83
2018-05-09T14:18:49.615Z,2.17
2018-05-09T14:21:18.729Z,1.67
2018-05-09T14:23:47.538Z,1.50
2018-05-09T14:26:16.387Z,2.10
2018-05-09T14:28:45.577Z,2.20
2018-05-09T14:31:14.689Z,1.60
2018-05-09T14:33:43.799Z,2.00
2018-05-09T14:36:12.919Z,1.77
2018-05-09T14:38:42.082Z,1.30
2018-05-09T14:41:11.269Z,1.70
2018-05-09T14:43:40.669Z,1.40
2018-05-09T14:46:09.965Z,2.00
2018-05-09T14:48:39.079Z,1.60
2018-05-09T14:51:08.197Z,1.83
2018-05-09T14:53:37.302Z,2.20
2018-05-09T14:56:06.413Z,1.97
2018-05-09T14:58:35.525Z,2.33
2018-05-09T15:01:04.668Z,2.10
2018-05-09T15:03:33.782Z,1.70
2018-05-09T15:06:02.898Z,1.90
2018-05-09T15:08:32.221Z,2.17
2018-05-09T15:11:02.474Z,1.40
2018-05-09T15:13:31.633Z,1.40
2018-05-09T15:16:00.976Z,1.40
2018-05-09T15:18:30.163Z,1.30
2018-05-09T15:20:59.267Z,1.07
2018-05-09T15:23:28.376Z,1.37
2018-05-09T15:25:57.509Z,1.50
2018-05-09T15:28:26.658Z,1.97
2018-05-09T15:30:55.972Z,1.80
2018-05-09T15:33:25.395Z,1.90
2018-05-09T15:35:54.580Z,1.93
2018-05-09T15:38:23.706Z,1.80
2018-05-09T15:40:52.831Z,1.90
2018-05-09T15:43:21.961Z,2.50
2018-05-09T15:45:51.082Z,2.30
2018-05-09T15:48:20.193Z,1.93
2018-05-09T15:50:49.308Z,2.27
2018-05-09T15:53:18.425Z,1.50
2018-05-09T15:55:47.544Z,2.07
2018-05-09T15:58:16.641Z,1.90
2018-05-09T16:00:45.918Z,2.17
2018-05-09T16:03:15.136Z,1.60
2018-05-09T16:05:44.300Z,1.90
2018-05-09T16:08:13.454Z,1.50
2018-05-09T16:10:42.754Z,1.73
2018-05-09T16:13:11.993Z,1.60
2018-05-09T16:15:41.245Z,1.93
2018-05-09T16:18:10.361Z,2.53
2018-05-09T16:20:39.467Z,2.30
2018-05-09T16:23:08.597Z,2.80
2018-05-09T16:25:37.744Z,3.50
2018-05-09T16:28:06.877Z,2.80
2018-05-09T16:30:36.238Z,2.80
2018-05-09T16:33:05.447Z,2.57
2018-05-09T16:35:34.981Z,3.60
2018-05-09T16:38:04.205Z,3.10
2018-05-09T16:40:34.376Z,3.27
2018-05-09T16:43:03.534Z,2.70
2018-05-09T16:45:32.730Z,3.07
2018-05-09T16:48:01.838Z,3.07
2018-05-09T16:50:31.257Z,2.90
2018-05-09T16:53:00.476Z,2.90
2018-05-09T16:55:29.577Z,2.97
2018-05-09T16:57:58.705Z,3.87
2018-05-09T17:00:27.812Z,2.87
2018-05-09T17:02:57.371Z,3.50
2018-05-09T17:05:26.557Z,3.27
2018-05-09T17:07:55.658Z,2.83
2018-05-09T17:10:24.866Z,2.80
2018-05-09T17:12:53.951Z,2.33
2018-05-09T17:15:23.083Z,3.13
2018-05-09T17:17:52.195Z,3.20
2018-05-09T17:20:21.311Z,2.70
2018-05-09T17:22:50.413Z,3.00
2018-05-09T17:25:19.512Z,2.57
2018-05-09T17:27:48.617Z,2.40
2018-05-09T17:30:17.739Z,2.70
2018-05-09T17:32:46.866Z,2.67
2018-05-09T17:35:15.979Z,2.67
2018-05-09T17:37:45.072Z,3.37
2018-05-09T17:40:14.191Z,2.83
2018-05-09T17:42:43.291Z,2.70
2018-05-09T17:45:12.418Z,2.83
2018-05-09T17:47:41.506Z,3.40
2018-05-09T17:50:10.612Z,2.50
2018-05-09T17:52:39.715Z,3.00
2018-05-09T17:55:08.832Z,2.40
2018-05-09T17:57:37.957Z,2.20
2018-05-09T18:00:07.048Z,2.57
2018-05-09T18:02:36.138Z,2.60
2018-05-09T18:05:05.241Z,2.50
2018-05-09T18:07:34.327Z,1.93
2018-05-09T18:10:03.419Z,2.50
2018-05-09T18:12:32.521Z,2.80
2018-05-09T18:15:01.602Z,2.57
2018-05-09T18:17:30.695Z,3.03
2018-05-09T18:19:59.784Z,2.87
2018-05-09T18:22:28.874Z,4.57
2018-05-09T18:24:57.959Z,2.37
2018-05-09T18:27:27.050Z,2.70
2018-05-09T18:29:56.143Z,2.60
2018-05-09T18:32:25.230Z,2.70
2018-05-09T18:34:54.314Z,2.10
2018-05-09T18:37:23.410Z,2.30
2018-05-09T18:39:52.604Z,2.40
2018-05-09T18:42:21.602Z,2.60
2018-05-09T18:44:50.689Z,2.63
2018-05-09T18:47:19.795Z,2.60
2018-05-09T18:49:48.882Z,3.00
2018-05-09T18:52:17.983Z,3.30
2018-05-09T18:54:47.066Z,2.77
2018-05-09T18:57:16.162Z,2.90
2018-05-09T18:59:45.340Z,2.80
2018-05-09T19:02:14.388Z,2.47
2018-05-09T19:04:43.562Z,2.60
2018-05-09T19:07:12.672Z,2.20
2018-05-09T19:09:41.771Z,2.97
2018-05-09T19:12:10.889Z,2.77
2018-05-09T19:14:40.005Z,2.60
2018-05-09T19:17:09.111Z,2.47
2018-05-09T19:19:38.198Z,2.57
2018-05-09T19:22:07.300Z,2.90
2018-05-09T19:24:36.393Z,2.03
2018-05-09T19:27:05.492Z,3.07
2018-05-09T19:29:34.593Z,2.47
2018-05-09T19:32:03.695Z,3.07
2018-05-09T19:34:32.808Z,2.43
2018-05-09T19:37:01.910Z,2.83
2018-05-09T19:39:31.002Z,2.80
2018-05-09T19:42:00.110Z,3.13
2018-05-09T19:44:29.205Z,3.50
2018-05-09T19:46:58.338Z,3.53
2018-05-09T19:49:27.428Z,2.67
2018-05-09T19:51:56.523Z,3.47
2018-05-09T19:54:25.634Z,3.30
2018-05-09T19:56:54.733Z,3.20
2018-05-09T19:59:23.843Z,2.73
2018-05-09T20:01:52.975Z,3.93
2018-05-09T20:04:22.067Z,3.10
2018-05-09T20:06:51.184Z,3.23
2018-05-09T20:09:20.271Z,3.10
2018-05-09T20:11:49.381Z,3.23
2018-05-09T20:14:18.467Z,3.53
2018-05-09T20:16:47.577Z,3.40
2018-05-09T20:19:16.688Z,3.57
2018-05-09T20:21:45.793Z,3.27
2018-05-09T20:24:14.892Z,3.87
2018-05-09T20:26:43.996Z,3.80
2018-05-09T20:29:13.112Z,4.00
2018-05-09T20:31:53.903Z,3.87
2018-05-09T20:34:22.999Z,3.90
2018-05-09T20:36:52.098Z,3.70
2018-05-09T20:39:21.191Z,3.93
2018-05-09T20:41:50.299Z,4.10
2018-05-09T20:44:19.391Z,3.73
2018-05-09T20:46:48.503Z,4.13
2018-05-09T20:49:17.757Z,4.17
2018-05-09T20:51:50.851Z,4.40
2018-05-09T20:54:19.953Z,4.90
2018-05-09T20:56:49.051Z,4.87
2018-05-09T20:59:18.156Z,3.47
2018-05-09T21:01:47.303Z,5.13
2018-05-09T21:04:16.395Z,4.50
2018-05-09T21:06:45.479Z,4.03
2018-05-09T21:09:14.643Z,4.60
2018-05-09T21:11:59.515Z,4.20
2018-05-09T21:14:28.608Z,4.60
2018-05-09T21:16:57.694Z,4.93
2018-05-09T21:19:26.795Z,3.90
2018-05-09T21:21:55.884Z,4.03
2018-05-09T21:24:24.994Z,4.17
2018-05-09T21:26:54.087Z,4.20
2018-05-09T21:29:23.186Z,5.00
2018-05-09T21:31:52.274Z,4.40
2018-05-09T21:34:21.370Z,4.70
2018-05-09T21:36:50.460Z,4.20
2018-05-09T21:39:19.558Z,4.00
2018-05-09T21:41:48.654Z,4.07
2018-05-09T21:44:17.750Z,4.60
2018-05-09T21:46:46.831Z,4.50
2018-05-09T21:49:15.930Z,4.37
2018-05-09T21:51:45.028Z,3.90
2018-05-09T21:54:14.162Z,4.23
2018-05-09T21:56:43.266Z,4.40
2018-05-09T21:59:12.370Z,4.50
2018-05-09T22:01:41.488Z,3.87
2018-05-09T22:04:10.594Z,4.30
2018-05-09T22:06:39.953Z,2.93
2018-05-09T22:09:09.059Z,4.17
2018-05-09T22:11:38.163Z,4.17
2018-05-09T22:14:07.330Z,4.50
2018-05-09T22:16:36.439Z,3.90
2018-05-09T22:19:05.531Z,3.37
2018-05-09T22:21:34.683Z,4.57
2018-05-09T22:24:03.724Z,3.80
2018-05-09T22:26:32.805Z,4.70
2018-05-09T22:29:01.902Z,4.20
2018-05-09T22:31:31.007Z,5.00
2018-05-09T22:34:00.119Z,4.13
2018-05-09T22:36:29.203Z,4.07
2018-05-09T22:38:58.311Z,4.33
2018-05-09T22:41:27.398Z,4.57
2018-05-09T22:43:56.504Z,4.13
2018-05-09T22:46:25.608Z,4.63
2018-05-09T22:48:54.705Z,4.40
2018-05-09T22:51:23.799Z,4.80
2018-05-09T22:53:52.898Z,4.53
2018-05-09T22:56:21.989Z,4.80
2018-05-09T22:58:51.075Z,4.77
2018-05-09T23:01:20.178Z,4.47
2018-05-09T23:03:49.279Z,4.43
2018-05-09T23:06:18.365Z,4.37
2018-05-09T23:08:47.458Z,5.10
2018-05-09T23:11:16.551Z,4.03
2018-05-09T23:13:45.653Z,6.93
2018-05-09T23:16:14.745Z,4.53
2018-05-09T23:18:43.854Z,4.40
2018-05-09T23:21:12.966Z,4.20
2018-05-09T23:23:42.143Z,4.50
2018-05-09T23:26:12.506Z,5.10
2018-05-09T23:28:41.606Z,3.97
2018-05-09T23:31:10.715Z,4.03
2018-05-09T23:33:39.811Z,4.70
2018-05-09T23:36:08.912Z,5.03
2018-05-09T23:38:38.018Z,4.70
2018-05-09T23:41:08.028Z,3.93
2018-05-09T23:43:37.123Z,4.70
2018-05-09T23:46:06.225Z,4.20
2018-05-09T23:48:35.314Z,4.00
2018-05-09T23:51:04.406Z,3.97
2018-05-09T23:53:33.509Z,4.10
2018-05-09T23:56:02.594Z,4.30
2018-05-09T23:58:31.695Z,4.20
